Terminal Aerodrome Forecast
Issued by NWS

Home | Current Version | Previous Version | Text Only | Print | Product List | Glossary On
Versions: 1 2 3 4 5 6 7 8 9 10 11 12 13
000
FTUS42 TJSJ 211700
TAFJMZ
TAF
TJMZ 211720Z 2118/2218 10013KT P6SM VCSH SCT025 BKN040
      TEMPO 2119/2121 10013G20KT 4SM SHRA SCT025 BKN050
     FM212230 07012KT P6SM VCSH SCT020 BKN040=

USA.gov is the U.S. government's official web portal to all federal, state and local government web resources and services.